createdAt,value
2022-12-12T00:00:00.020Z,12.47
2022-12-12T00:04:51.661Z,12.47
2022-12-12T00:09:43.621Z,12.53
2022-12-12T00:14:35.163Z,12.90
2022-12-12T00:19:27.001Z,13.03
2022-12-12T00:24:18.561Z,13.27
2022-12-12T00:29:11.224Z,13.07
2022-12-12T00:34:02.810Z,12.60
2022-12-12T00:38:55.285Z,11.73
2022-12-12T00:43:46.927Z,12.43
2022-12-12T00:48:38.551Z,11.50
2022-12-12T00:53:30.475Z,11.47
2022-12-12T00:58:22.299Z,10.90
2022-12-12T01:03:13.975Z,11.37
2022-12-12T01:08:05.616Z,10.37
2022-12-12T01:12:57.329Z,10.47
2022-12-12T01:17:48.872Z,11.10
2022-12-12T01:22:40.441Z,9.77
2022-12-12T01:27:32.318Z,10.63
2022-12-12T01:32:23.859Z,9.47
2022-12-12T01:37:15.418Z,10.73
2022-12-12T01:42:15.329Z,9.70
2022-12-12T01:47:06.881Z,9.40
2022-12-12T01:52:08.390Z,9.63
2022-12-12T01:57:05.132Z,10.17
2022-12-12T02:01:57.038Z,10.23
2022-12-12T02:06:51.788Z,10.50
2022-12-12T02:11:48.121Z,10.57
2022-12-12T02:17:13.619Z,9.77
2022-12-12T02:22:15.236Z,10.83
2022-12-12T02:27:06.699Z,10.93
2022-12-12T02:31:58.629Z,9.70
2022-12-12T02:37:21.137Z,9.00
2022-12-12T02:42:15.654Z,8.80
2022-12-12T02:47:19.419Z,8.97
2022-12-12T02:52:11.883Z,9.27
2022-12-12T02:57:04.916Z,8.00
2022-12-12T03:02:08.312Z,8.10
2022-12-12T03:07:18.040Z,7.80
2022-12-12T03:12:27.776Z,8.00
2022-12-12T03:17:26.298Z,7.77
2022-12-12T03:22:46.316Z,7.67
2022-12-12T03:27:45.305Z,7.43
2022-12-12T03:32:54.330Z,6.73
2022-12-12T03:37:50.929Z,8.10
2022-12-12T03:42:54.293Z,7.17
2022-12-12T03:47:51.464Z,7.00
2022-12-12T03:52:50.080Z,6.63
2022-12-12T03:58:05.598Z,7.40
2022-12-12T04:03:15.701Z,6.90
2022-12-12T04:08:11.718Z,7.53
2022-12-12T04:13:10.590Z,7.03
2022-12-12T04:18:18.918Z,6.27
2022-12-12T04:23:26.700Z,6.73
2022-12-12T04:28:18.595Z,5.80
2022-12-12T04:33:15.633Z,5.50
2022-12-12T04:38:15.461Z,5.83
2022-12-12T04:43:19.130Z,6.10
2022-12-12T04:48:16.489Z,5.87
2022-12-12T04:53:18.179Z,6.17
2022-12-12T04:58:11.219Z,6.03
2022-12-12T05:03:17.798Z,5.87
2022-12-12T05:08:15.792Z,5.80
2022-12-12T05:13:17.262Z,6.30
2022-12-12T05:18:11.234Z,5.47
2022-12-12T05:23:02.805Z,6.00
2022-12-12T05:27:54.377Z,6.63
2022-12-12T05:32:45.982Z,6.57
2022-12-12T05:37:37.829Z,6.50
2022-12-12T05:42:29.419Z,5.83
2022-12-12T05:47:21.080Z,6.57
2022-12-12T05:52:12.671Z,6.13
2022-12-12T05:57:04.218Z,5.63
2022-12-12T06:01:55.777Z,6.07
2022-12-12T06:06:47.355Z,6.20
2022-12-12T06:11:40.338Z,6.03
2022-12-12T06:16:31.858Z,5.67
2022-12-12T06:21:23.865Z,6.20
2022-12-12T06:26:18.177Z,6.17
2022-12-12T06:31:12.154Z,6.30
2022-12-12T06:36:26.213Z,5.93
2022-12-12T06:41:18.651Z,6.13
2022-12-12T06:46:16.807Z,6.07
2022-12-12T06:51:15.580Z,5.90
2022-12-12T06:56:16.117Z,6.17
2022-12-12T07:01:08.051Z,5.50
2022-12-12T07:06:00.831Z,6.67
2022-12-12T07:10:52.434Z,6.53
2022-12-12T07:15:46.417Z,6.93
2022-12-12T07:20:40.409Z,6.17
2022-12-12T07:25:31.941Z,6.53
2022-12-12T07:30:23.509Z,6.93
2022-12-12T07:35:15.490Z,6.70
2022-12-12T07:40:07.549Z,6.30
2022-12-12T07:44:59.238Z,6.40
2022-12-12T07:49:50.763Z,6.67
2022-12-12T07:54:42.367Z,6.10
2022-12-12T07:59:34.016Z,7.10
2022-12-12T08:04:25.675Z,7.10
2022-12-12T08:09:17.810Z,8.80
2022-12-12T08:14:13.162Z,7.67
2022-12-12T08:19:05.243Z,8.17
2022-12-12T08:23:58.599Z,7.17
2022-12-12T08:28:50.994Z,7.90
2022-12-12T08:33:42.795Z,6.53
2022-12-12T08:38:34.370Z,6.87
2022-12-12T08:43:26.161Z,6.77
2022-12-12T08:48:18.009Z,6.27
2022-12-12T08:53:09.635Z,6.57
2022-12-12T08:58:01.314Z,6.33
2022-12-12T09:02:52.986Z,7.47
2022-12-12T09:07:44.681Z,7.63
2022-12-12T09:12:41.437Z,7.77
2022-12-12T09:17:33.533Z,7.63
2022-12-12T09:22:25.098Z,7.37
2022-12-12T09:27:16.714Z,8.00
2022-12-12T09:32:08.865Z,7.60
2022-12-12T09:37:01.069Z,6.77
2022-12-12T09:41:52.723Z,6.93
2022-12-12T09:46:47.703Z,7.13
2022-12-12T09:51:41.839Z,7.17
2022-12-12T09:56:41.579Z,7.13
2022-12-12T10:02:10.499Z,7.70
2022-12-12T10:07:11.321Z,8.17
2022-12-12T10:12:08.351Z,8.60
2022-12-12T10:17:03.759Z,8.30
2022-12-12T10:22:02.203Z,9.73
2022-12-12T10:26:54.496Z,7.50
2022-12-12T10:32:08.326Z,8.27
2022-12-12T10:37:21.659Z,8.83
2022-12-12T10:42:19.277Z,8.93
2022-12-12T10:47:12.825Z,9.63
2022-12-12T10:52:18.165Z,10.23
2022-12-12T10:57:19.906Z,9.63
2022-12-12T11:02:39.583Z,10.03
2022-12-12T11:07:36.720Z,11.10
2022-12-12T11:12:35.332Z,9.50
2022-12-12T11:17:33.740Z,10.77
2022-12-12T11:22:27.240Z,9.20
2022-12-12T11:27:22.734Z,10.30
2022-12-12T11:32:17.473Z,8.97
2022-12-12T11:37:15.958Z,8.73
2022-12-12T11:42:13.653Z,8.97
2022-12-12T11:47:30.144Z,10.43
2022-12-12T11:52:26.106Z,10.47
2022-12-12T11:57:26.721Z,9.47
2022-12-12T12:02:40.727Z,9.87
2022-12-12T12:07:54.362Z,10.83
2022-12-12T12:12:51.645Z,9.03
2022-12-12T12:17:45.874Z,9.87
2022-12-12T12:22:46.532Z,11.97
2022-12-12T12:27:59.264Z,10.37
2022-12-12T12:33:35.546Z,9.83
2022-12-12T12:38:55.431Z,10.37
2022-12-12T12:44:05.746Z,10.10
2022-12-12T12:49:10.425Z,9.93
2022-12-12T12:54:25.931Z,10.37
2022-12-12T12:59:22.817Z,10.33
2022-12-12T13:04:21.762Z,10.40
2022-12-12T13:09:46.920Z,9.10
2022-12-12T13:14:56.519Z,9.53
2022-12-12T13:19:53.370Z,9.70
2022-12-12T13:24:56.349Z,9.53
2022-12-12T13:30:00.585Z,9.70
2022-12-12T13:34:58.435Z,8.50
2022-12-12T13:40:02.087Z,8.40
2022-12-12T13:44:53.627Z,9.50
2022-12-12T13:49:55.709Z,9.20
2022-12-12T13:54:47.690Z,9.07
2022-12-12T13:59:57.628Z,9.53
2022-12-12T14:05:13.114Z,9.33
2022-12-12T14:10:26.272Z,9.20
2022-12-12T14:15:31.283Z,8.67
2022-12-12T14:20:36.093Z,9.17
2022-12-12T14:25:36.943Z,8.93
2022-12-12T14:30:41.069Z,8.03
2022-12-12T14:36:13.567Z,9.33
2022-12-12T14:41:12.428Z,8.23
2022-12-12T14:46:04.361Z,9.60
2022-12-12T14:51:29.682Z,9.43
2022-12-12T14:56:32.486Z,8.83
2022-12-12T15:01:43.479Z,8.77
2022-12-12T15:06:40.766Z,9.80
2022-12-12T15:11:32.439Z,8.87
2022-12-12T15:16:48.565Z,8.80
2022-12-12T15:21:42.427Z,9.60
2022-12-12T15:26:34.962Z,9.00
2022-12-12T15:31:26.677Z,9.63
2022-12-12T15:36:28.360Z,9.60
2022-12-12T15:41:21.090Z,9.57
2022-12-12T15:46:15.252Z,10.57
2022-12-12T15:51:07.355Z,9.90
2022-12-12T15:56:01.907Z,9.70
2022-12-12T16:01:03.079Z,10.27
2022-12-12T16:06:19.611Z,10.07
2022-12-12T16:11:45.701Z,9.70
2022-12-12T16:16:45.380Z,10.40
2022-12-12T16:21:42.127Z,9.73
2022-12-12T16:26:33.700Z,9.93
2022-12-12T16:31:26.128Z,10.10
2022-12-12T16:36:17.705Z,12.13
2022-12-12T16:41:17.716Z,13.40
2022-12-12T16:46:19.583Z,13.37
2022-12-12T16:51:15.919Z,15.03
2022-12-12T16:56:08.001Z,12.57
2022-12-12T17:01:01.586Z,10.63
2022-12-12T17:05:53.362Z,10.40
2022-12-12T17:10:46.896Z,9.73
2022-12-12T17:15:38.513Z,11.20
2022-12-12T17:20:37.462Z,10.00
2022-12-12T17:25:29.756Z,9.83
2022-12-12T17:30:22.115Z,10.90
2022-12-12T17:35:13.905Z,10.00
2022-12-12T17:40:08.163Z,10.37
2022-12-12T17:44:59.858Z,11.37
2022-12-12T17:49:52.117Z,10.73
2022-12-12T17:54:43.884Z,10.40
2022-12-12T17:59:55.444Z,10.07
2022-12-12T18:04:47.061Z,10.93
2022-12-12T18:09:38.666Z,11.63
2022-12-12T18:14:30.563Z,9.80
2022-12-12T18:19:25.245Z,11.00
2022-12-12T18:24:18.076Z,10.20
2022-12-12T18:29:12.185Z,11.07
2022-12-12T18:34:04.486Z,10.60
2022-12-12T18:38:57.198Z,11.43
2022-12-12T18:43:48.728Z,12.03
2022-12-12T18:48:42.610Z,11.00
2022-12-12T18:53:34.746Z,11.03
2022-12-12T18:58:26.548Z,10.83
2022-12-12T19:03:18.098Z,11.43
2022-12-12T19:08:10.849Z,11.30
2022-12-12T19:13:03.226Z,12.03
2022-12-12T19:17:56.126Z,11.37
2022-12-12T19:22:47.703Z,11.80
2022-12-12T19:27:39.547Z,11.83
2022-12-12T19:32:31.216Z,11.20
2022-12-12T19:37:22.871Z,11.63
2022-12-12T19:42:14.893Z,12.93
2022-12-12T19:47:07.297Z,11.97
2022-12-12T19:51:58.879Z,12.20
2022-12-12T19:56:50.916Z,11.47
2022-12-12T20:01:43.178Z,11.40
2022-12-12T20:06:46.794Z,11.50
2022-12-12T20:11:38.795Z,10.77
2022-12-12T20:16:30.629Z,11.70
2022-12-12T20:21:59.160Z,11.33
2022-12-12T20:26:37.470Z,10.73
2022-12-12T20:31:32.235Z,11.30
2022-12-12T20:36:35.333Z,11.93
2022-12-12T20:41:34.075Z,11.80
2022-12-12T20:46:31.838Z,11.97
2022-12-12T20:51:54.152Z,11.87
2022-12-12T20:56:46.001Z,12.13
2022-12-12T21:01:38.196Z,11.43
2022-12-12T21:06:33.962Z,12.07
2022-12-12T21:11:25.547Z,11.23
2022-12-12T21:16:19.812Z,12.13
2022-12-12T21:21:12.037Z,11.93
2022-12-12T21:26:09.361Z,12.93
2022-12-12T21:31:00.989Z,12.23
2022-12-12T21:35:55.750Z,12.47
2022-12-12T21:40:47.305Z,12.37
2022-12-12T21:45:39.374Z,12.80
2022-12-12T21:50:31.973Z,12.23
2022-12-12T21:55:23.534Z,11.83
2022-12-12T22:00:15.294Z,12.50
2022-12-12T22:05:07.578Z,12.03
2022-12-12T22:10:10.351Z,12.70
2022-12-12T22:15:03.317Z,12.70
2022-12-12T22:19:57.322Z,12.40
2022-12-12T22:24:50.436Z,11.80
2022-12-12T22:29:41.946Z,13.50
2022-12-12T22:34:33.543Z,13.17
2022-12-12T22:39:27.301Z,13.37
2022-12-12T22:44:21.649Z,12.00
2022-12-12T22:49:15.268Z,11.37
2022-12-12T22:54:06.960Z,13.37
2022-12-12T22:58:58.655Z,12.23
2022-12-12T23:03:51.802Z,12.40
2022-12-12T23:08:44.238Z,12.63
2022-12-12T23:13:37.743Z,14.03
2022-12-12T23:18:29.355Z,13.37
2022-12-12T23:23:20.974Z,13.23
2022-12-12T23:28:14.081Z,13.20
2022-12-12T23:33:05.894Z,13.17
2022-12-12T23:37:57.412Z,13.90
2022-12-12T23:42:48.969Z,14.83
2022-12-12T23:47:40.957Z,13.60
2022-12-12T23:52:32.513Z,13.30
2022-12-12T23:57:23.997Z,13.53
